F69 weather

Air Park Dallas Airport
Dallas, Texas, United States

Public forecast

Using degrees Fahrenheit for public forecast. Weather courtesy of forecast.io.

METAR (pilot weather report)

Closest report is Addison Airport, 3.3 nm (6.1 km) S. Retrieved 2018/07/20 18:47 UTC (37 minutes ago):

KADS 201847Z 24009G15KT 10SM SKC 39/15 A2991

TAF (pilot weather forecast)

Closest forecast is Dallas Love Field, 10.6 nm (19.7 km) S. Retrieved 2018/07/20 18:39 UTC (45 minutes ago):

TAF KDAL 201736Z 2018/2118 21012KT P6SM BKN300 FM211500 24010KT P6SM SCT300